Tropical Cyclones
[Index]
Main Index Home Page Stock Weather Photos Extreme Storms Discussion Storm News and Storm Chasing Reports Tropical Cyclones / Hurricanes / Typhoons Weather Data and Links Wild Fires / Bushfires Weather Observation Techniques Weather Picture Catalogue Tornado Pictures and Reports Stock Video Footage and DVDs for sale
Season 1992-1993 Tropical Cyclone JOURDANNE Track Map
Season 1992-1993 Summaries: [BoM-AU] [JTWC-AU] [JTWC-SIO] [JTWC-SPAC] [JTWC-SH]
<<- Previous TC | JTWC 1992-1993 Season | Next TC ->>

click for intensity scale information  Lat/long Grid: Show Hide

 Date Labels: Show Hide

Joint Typhoon Warning Centre Cyclone Data

Name: JOURDANNE

01 Apr 1993 00:00 UTC to 10 Apr 1993 00:00 UTC

    date/time    lat    long     hPa   cat  kts
1993-04-01 00   13.1    91.7                  20          
1993-04-01 06   13.4    91.2                  20          
1993-04-01 12   13.7    90.7                  20          
1993-04-01 18   13.9    90.1                  20          
1993-04-02 00   14.1    89.4                  20          
1993-04-02 06   14.3    88.5                  25          
1993-04-02 12   14.4    87.5                  25          
1993-04-02 18   14.5    86.5                  25          
1993-04-03 00   14.5    85.5                  30          
1993-04-03 06   14.4    84.6                  35          
1993-04-03 12   14.4    83.8                  35          
1993-04-03 18   14.4    83.0                  35          
1993-04-04 00   14.7    82.1                  35          
1993-04-04 06   15.1    81.3            1     45          
1993-04-04 12   15.5    80.5            2     55          
1993-04-04 18   16.0    79.6            2     65          
1993-04-05 00   16.3    78.7            3     80          
1993-04-05 06   16.7    77.8            3     90          
1993-04-05 12   17.1    77.1            4    100          
1993-04-05 18   17.6    76.4            4    110          
1993-04-06 00   18.1    75.8            5    125          
1993-04-06 06   18.6    75.4            5    125          
1993-04-06 12   19.0    75.2            5    125          
1993-04-06 18   19.2    75.2            4    120          
1993-04-07 00   19.4    75.3            4    115          
1993-04-07 06   19.6    75.4            4    110          
1993-04-07 12   19.7    75.5            4    100          
1993-04-07 18   19.8    75.6            3     95          
1993-04-08 00   19.9    75.7            3     90          
1993-04-08 06   20.0    75.8            3     85          
1993-04-08 12   20.1    75.8            3     75          
1993-04-08 18   20.2    75.8            2     65          
1993-04-09 00   20.3    75.9            2     60          
1993-04-09 06   20.6    76.1            2     55          
1993-04-09 12   21.0    76.3            1     45          
1993-04-09 18   21.3    76.5                  35          
1993-04-10 00   21.7    76.7                  30          
Winds are 1-min average.

Tropical cyclone tracks developed by Michael Bath using data from the Joint Typhoon Warning Centre Best Tracks and Google Maps.


[Australian Severe Weather index] [Copyright Notice] [Email Contacts] [Search This Site] [Privacy Policy]
Document: tropical_cyclone_jourdanne.htm Updated: 18 September 2016